createdAt,value
2023-01-06T00:01:41.638Z,78008.47
2023-01-06T00:03:33.184Z,77988.69
2023-01-06T00:05:24.685Z,77990.66
2023-01-06T00:07:16.379Z,77984.72
2023-01-06T00:09:07.587Z,77980.78
2023-01-06T00:10:58.750Z,77992.63
2023-01-06T00:12:50.362Z,77986.69
2023-01-06T00:14:43.369Z,77992.63
2023-01-06T00:16:36.288Z,77978.78
2023-01-06T00:18:27.667Z,77968.91
2023-01-06T00:20:19.084Z,77972.84
2023-01-06T00:22:10.684Z,77972.84
2023-01-06T00:24:02.082Z,77984.72
2023-01-06T00:25:53.463Z,77992.63
2023-01-06T00:27:44.587Z,78000.53
2023-01-06T00:29:36.275Z,77998.56
2023-01-06T00:31:27.629Z,77984.72
2023-01-06T00:33:18.988Z,77996.59
2023-01-06T00:35:10.578Z,77990.66
2023-01-06T00:37:01.735Z,78004.50
2023-01-06T00:38:52.852Z,77998.56
2023-01-06T00:40:44.439Z,78012.41
2023-01-06T00:42:35.492Z,78004.50
2023-01-06T00:44:26.869Z,78010.44
2023-01-06T00:46:18.150Z,78012.41
2023-01-06T00:48:09.344Z,78006.47
2023-01-06T00:50:00.880Z,78002.53
2023-01-06T00:51:53.751Z,78010.44
2023-01-06T00:53:44.763Z,78010.44
2023-01-06T00:55:35.958Z,78004.50
2023-01-06T00:57:27.797Z,78012.41
2023-01-06T00:59:20.427Z,78004.50
2023-01-06T01:01:11.826Z,78004.50
2023-01-06T01:03:03.454Z,78010.44
2023-01-06T01:04:54.588Z,78018.34
2023-01-06T01:06:46.660Z,78008.47
2023-01-06T01:08:37.966Z,77996.59
2023-01-06T01:10:29.293Z,77976.81
2023-01-06T01:12:20.431Z,77996.59
2023-01-06T01:14:13.019Z,77976.81
2023-01-06T01:16:05.814Z,77972.84
2023-01-06T01:17:57.144Z,77980.78
2023-01-06T01:19:49.347Z,77976.81
2023-01-06T01:21:40.909Z,77968.91
2023-01-06T01:23:32.405Z,77957.03
2023-01-06T01:25:24.360Z,77962.97
2023-01-06T01:27:15.869Z,77960.97
2023-01-06T01:29:07.047Z,77972.84
2023-01-06T01:31:02.101Z,77972.84
2023-01-06T01:32:53.478Z,77980.78
2023-01-06T01:34:45.126Z,77970.88
2023-01-06T01:36:36.324Z,77972.84
2023-01-06T01:38:27.521Z,77968.91
2023-01-06T01:40:18.767Z,77984.72
2023-01-06T01:42:16.047Z,77974.84
2023-01-06T01:44:25.824Z,77964.94
2023-01-06T01:46:19.185Z,77949.13
2023-01-06T01:48:14.618Z,77941.22
2023-01-06T01:50:15.660Z,77935.28
2023-01-06T01:52:08.022Z,77925.38
2023-01-06T01:54:01.714Z,77921.44
2023-01-06T01:55:54.603Z,77919.44
2023-01-06T01:57:57.826Z,77919.44
2023-01-06T01:59:50.345Z,77913.50
2023-01-06T02:01:41.247Z,77911.53
2023-01-06T02:03:32.717Z,77903.63
2023-01-06T02:05:26.499Z,77905.59
2023-01-06T02:07:18.493Z,77891.75
2023-01-06T02:09:21.799Z,77905.59
2023-01-06T02:11:13.228Z,77895.72
2023-01-06T02:13:04.375Z,77885.81
2023-01-06T02:15:26.180Z,77891.75
2023-01-06T02:17:20.295Z,77897.69
2023-01-06T02:19:11.658Z,77885.81
2023-01-06T02:21:10.283Z,77885.81
2023-01-06T02:23:19.881Z,77891.75
2023-01-06T02:25:14.304Z,77889.78
2023-01-06T02:27:15.201Z,77901.66
2023-01-06T02:29:29.841Z,77885.81
2023-01-06T02:31:39.863Z,77881.88
2023-01-06T02:33:33.486Z,77875.94
2023-01-06T02:35:33.336Z,77866.03
2023-01-06T02:37:45.751Z,77866.03
2023-01-06T02:39:40.111Z,77866.03
2023-01-06T02:41:58.066Z,77854.16
2023-01-06T02:43:52.430Z,77850.22
2023-01-06T02:45:56.144Z,77842.31
2023-01-06T02:48:00.951Z,77850.22
2023-01-06T02:49:57.395Z,77854.16
2023-01-06T02:51:56.844Z,77850.22
2023-01-06T02:53:48.749Z,77834.38
2023-01-06T02:55:51.447Z,77834.38
2023-01-06T02:57:43.917Z,77830.44
2023-01-06T02:59:38.766Z,77822.53
2023-01-06T03:01:33.787Z,77814.59
2023-01-06T03:03:26.863Z,77818.56
2023-01-06T03:05:18.966Z,77806.69
2023-01-06T03:07:11.543Z,77806.69
2023-01-06T03:09:05.570Z,77792.84
2023-01-06T03:11:03.798Z,77786.91
2023-01-06T03:13:13.304Z,77782.97
2023-01-06T03:15:04.479Z,77804.72
2023-01-06T03:16:55.624Z,77796.81
2023-01-06T03:18:49.013Z,77794.84
2023-01-06T03:20:42.645Z,77779.00
2023-01-06T03:22:34.726Z,77779.00
2023-01-06T03:24:26.000Z,77784.94
2023-01-06T03:26:17.563Z,77782.97
2023-01-06T03:28:09.905Z,77779.00
2023-01-06T03:30:01.725Z,77775.06
2023-01-06T03:31:54.653Z,77782.97
2023-01-06T03:33:57.193Z,77782.97
2023-01-06T03:35:51.175Z,77779.00
2023-01-06T03:37:55.265Z,77775.06
2023-01-06T03:39:54.002Z,77765.16
2023-01-06T03:42:07.376Z,77765.16
2023-01-06T03:44:03.681Z,77771.09
2023-01-06T03:46:07.870Z,77751.31
2023-01-06T03:48:03.430Z,77747.34
2023-01-06T03:50:00.630Z,77747.34
2023-01-06T03:51:55.627Z,77739.44
2023-01-06T03:53:49.016Z,77739.44
2023-01-06T03:55:43.232Z,77735.50
2023-01-06T03:57:37.151Z,77735.50
2023-01-06T03:59:35.105Z,77719.66
2023-01-06T04:01:27.999Z,77721.66
2023-01-06T04:03:24.492Z,77707.81
2023-01-06T04:05:20.491Z,77707.81
2023-01-06T04:07:13.236Z,77719.66
2023-01-06T04:09:06.956Z,77711.75
2023-01-06T04:11:00.359Z,77717.69
2023-01-06T04:12:52.349Z,77705.81
2023-01-06T04:14:49.042Z,77715.72
2023-01-06T04:16:40.759Z,77690.00
2023-01-06T04:18:33.175Z,77697.91
2023-01-06T04:20:26.358Z,77691.97
2023-01-06T04:22:23.497Z,77699.88
2023-01-06T04:24:14.943Z,77690.00
2023-01-06T04:26:06.480Z,77684.06
2023-01-06T04:28:03.236Z,77680.09
2023-01-06T04:29:54.697Z,77680.09
2023-01-06T04:31:46.542Z,77680.09
2023-01-06T04:33:42.005Z,77680.09
2023-01-06T04:35:35.957Z,77678.13
2023-01-06T04:37:28.023Z,77676.16
2023-01-06T04:39:19.173Z,77672.19
2023-01-06T04:41:10.541Z,77658.34
2023-01-06T04:43:04.808Z,77660.34
2023-01-06T04:44:55.643Z,77654.41
2023-01-06T04:46:46.834Z,77632.63
2023-01-06T04:48:38.322Z,77628.69
2023-01-06T04:50:29.370Z,77628.69
2023-01-06T04:52:20.961Z,77640.56
2023-01-06T04:54:12.543Z,77612.84
2023-01-06T04:56:08.188Z,77626.72
2023-01-06T04:57:59.429Z,77628.69
2023-01-06T04:59:50.735Z,77597.03
2023-01-06T05:01:42.093Z,77604.94
2023-01-06T05:03:33.703Z,77599.00
2023-01-06T05:05:25.167Z,77601.00
2023-01-06T05:07:16.445Z,77589.13
2023-01-06T05:09:07.729Z,77573.31
2023-01-06T05:11:03.014Z,77565.38
2023-01-06T05:12:54.247Z,77577.25
2023-01-06T05:14:45.918Z,77573.31
2023-01-06T05:16:38.683Z,77579.25
2023-01-06T05:18:29.896Z,77569.34
2023-01-06T05:20:21.493Z,77557.47
2023-01-06T05:22:12.894Z,77549.56
2023-01-06T05:24:04.051Z,77535.72
2023-01-06T05:25:55.366Z,77535.72
2023-01-06T05:27:46.951Z,77529.78
2023-01-06T05:29:38.567Z,77541.66
2023-01-06T05:31:30.095Z,77553.53
2023-01-06T05:33:21.346Z,77525.84
2023-01-06T05:35:12.569Z,77521.88
2023-01-06T05:37:04.019Z,77525.84
2023-01-06T05:38:55.333Z,77513.97
2023-01-06T05:40:50.941Z,77519.91
2023-01-06T05:42:42.056Z,77513.97
2023-01-06T05:44:33.408Z,77521.88
2023-01-06T05:46:24.799Z,77486.28
2023-01-06T05:48:16.237Z,77474.41
2023-01-06T05:50:08.183Z,77466.50
2023-01-06T05:51:59.247Z,77462.53
2023-01-06T05:53:50.537Z,77456.59
2023-01-06T05:55:42.070Z,77446.72
2023-01-06T05:57:33.694Z,77438.81
2023-01-06T05:59:25.438Z,77442.75
2023-01-06T06:01:24.043Z,77436.84
2023-01-06T06:03:15.006Z,77434.84
2023-01-06T06:05:06.719Z,77421.00
2023-01-06T06:06:58.067Z,77403.22
2023-01-06T06:08:49.583Z,77397.28
2023-01-06T06:10:40.627Z,77379.47
2023-01-06T06:12:32.114Z,77395.28
2023-01-06T06:14:23.466Z,77395.28
2023-01-06T06:16:16.092Z,77371.56
2023-01-06T06:18:07.516Z,77379.47
2023-01-06T06:19:58.812Z,77365.63
2023-01-06T06:21:50.186Z,77375.53
2023-01-06T06:23:42.107Z,77339.91
2023-01-06T06:25:33.425Z,77322.13
2023-01-06T06:27:24.676Z,77328.06
2023-01-06T06:29:16.479Z,77316.19
2023-01-06T06:31:13.643Z,77312.22
2023-01-06T06:33:05.882Z,77296.41
2023-01-06T06:34:56.969Z,77312.22
2023-01-06T06:36:48.090Z,77288.50
2023-01-06T06:38:39.561Z,77310.25
2023-01-06T06:40:31.114Z,77284.53
2023-01-06T06:42:22.524Z,77308.28
2023-01-06T06:44:13.925Z,77284.53
2023-01-06T06:46:05.326Z,77272.69
2023-01-06T06:47:56.400Z,77264.75
2023-01-06T06:49:47.846Z,77276.63
2023-01-06T06:51:39.625Z,77248.94
2023-01-06T06:53:30.969Z,77231.16
2023-01-06T06:55:22.297Z,77229.16
2023-01-06T06:57:13.656Z,77237.06
2023-01-06T06:59:04.872Z,77225.22
2023-01-06T07:00:55.865Z,77217.31
2023-01-06T07:02:50.474Z,77185.66
2023-01-06T07:04:41.591Z,77223.22
2023-01-06T07:06:33.047Z,77213.34
2023-01-06T07:08:24.472Z,77205.44
2023-01-06T07:10:19.249Z,77209.38
2023-01-06T07:12:10.566Z,77217.31
2023-01-06T07:14:02.141Z,77215.31
2023-01-06T07:15:53.651Z,77209.38
2023-01-06T07:17:45.105Z,77221.25
2023-01-06T07:19:36.372Z,77221.25
2023-01-06T07:21:27.668Z,77213.34
2023-01-06T07:23:19.205Z,77225.22
2023-01-06T07:25:10.963Z,77205.44
2023-01-06T07:27:02.752Z,77199.50
2023-01-06T07:28:53.963Z,77193.56
2023-01-06T07:30:46.083Z,77181.69
2023-01-06T07:32:37.376Z,77161.94
2023-01-06T07:34:28.679Z,77173.78
2023-01-06T07:36:20.101Z,77159.94
2023-01-06T07:38:11.188Z,77157.97
2023-01-06T07:40:02.435Z,77122.38
2023-01-06T07:41:54.111Z,77130.28
2023-01-06T07:43:45.392Z,77110.50
2023-01-06T07:45:36.540Z,77146.09
2023-01-06T07:47:27.910Z,77106.56
2023-01-06T07:49:19.049Z,77112.47
2023-01-06T07:51:10.235Z,77106.56
2023-01-06T07:53:02.638Z,77110.50
2023-01-06T07:54:53.694Z,77086.78
2023-01-06T07:56:44.899Z,77084.78
2023-01-06T07:58:36.504Z,77090.72
2023-01-06T08:00:28.237Z,77094.69
2023-01-06T08:02:19.423Z,77104.56
2023-01-06T08:04:11.137Z,77098.63
2023-01-06T08:06:06.239Z,77126.31
2023-01-06T08:07:57.551Z,77094.69
2023-01-06T08:09:49.134Z,77074.91
2023-01-06T08:11:40.303Z,77067.00
2023-01-06T08:13:31.375Z,77049.19
2023-01-06T08:15:22.769Z,77063.03
2023-01-06T08:17:14.516Z,77035.34
2023-01-06T08:19:06.042Z,77067.00
2023-01-06T08:21:08.651Z,77067.00
2023-01-06T08:22:59.522Z,77063.03
2023-01-06T08:24:50.569Z,77049.19
2023-01-06T08:26:42.206Z,77033.38
2023-01-06T08:28:33.849Z,77029.41
2023-01-06T08:30:24.835Z,77031.41
2023-01-06T08:32:16.408Z,77017.56
2023-01-06T08:34:07.249Z,77011.63
2023-01-06T08:35:59.709Z,77001.72
2023-01-06T08:37:51.254Z,77005.69
2023-01-06T08:39:43.230Z,77003.72
2023-01-06T08:41:34.393Z,77023.50
2023-01-06T08:43:25.963Z,77009.66
2023-01-06T08:45:17.100Z,77005.69
2023-01-06T08:47:08.320Z,77007.66
2023-01-06T08:48:59.832Z,77011.63
2023-01-06T08:50:50.923Z,77009.66
2023-01-06T08:52:41.952Z,77015.56
2023-01-06T08:54:33.686Z,77015.56
2023-01-06T08:56:27.317Z,77003.72
2023-01-06T08:58:18.335Z,77011.63
2023-01-06T09:00:10.030Z,76978.00
2023-01-06T09:02:01.494Z,76983.94
2023-01-06T09:03:53.420Z,76993.81
2023-01-06T09:05:45.318Z,76979.97
2023-01-06T09:07:36.599Z,76978.00
2023-01-06T09:09:27.635Z,76968.13
2023-01-06T09:11:19.267Z,76960.22
2023-01-06T09:13:10.133Z,76964.16
2023-01-06T09:15:01.258Z,76940.44
2023-01-06T09:16:52.776Z,76952.28
2023-01-06T09:19:01.762Z,76942.41
2023-01-06T09:20:53.215Z,76962.19
2023-01-06T09:22:45.956Z,76979.97
2023-01-06T09:24:37.441Z,76956.25
2023-01-06T09:26:28.884Z,76946.38
2023-01-06T09:28:20.334Z,76916.69
2023-01-06T09:30:11.854Z,76900.88
2023-01-06T09:32:03.775Z,76902.84
2023-01-06T09:33:55.025Z,76887.03
2023-01-06T09:35:46.768Z,76900.88
2023-01-06T09:37:37.916Z,76920.66
2023-01-06T09:39:29.479Z,76900.88
2023-01-06T09:41:37.128Z,76896.94
2023-01-06T09:43:31.201Z,76900.88
2023-01-06T09:45:44.320Z,76892.97
2023-01-06T09:47:43.002Z,76900.88
2023-01-06T09:49:37.704Z,76920.66
2023-01-06T09:51:29.640Z,76910.75
2023-01-06T09:53:23.773Z,76900.88
2023-01-06T09:55:29.757Z,76924.59
2023-01-06T09:57:41.477Z,76912.75
2023-01-06T09:59:35.759Z,76906.81
2023-01-06T10:01:38.716Z,76920.66
2023-01-06T10:03:30.695Z,76891.00
2023-01-06T10:05:42.489Z,76851.44
2023-01-06T10:07:40.293Z,76877.16
2023-01-06T10:09:41.922Z,76904.84
2023-01-06T10:11:33.194Z,76859.34
2023-01-06T10:13:24.790Z,76849.47
2023-01-06T10:15:33.000Z,76849.47
2023-01-06T10:17:33.319Z,76877.16
2023-01-06T10:19:43.604Z,76853.41
2023-01-06T10:21:55.133Z,76847.50
2023-01-06T10:23:51.810Z,76857.38
2023-01-06T10:26:06.223Z,76861.34
2023-01-06T10:28:10.632Z,76851.44
2023-01-06T10:30:03.099Z,76865.28
2023-01-06T10:31:55.154Z,76845.50
2023-01-06T10:33:51.282Z,76865.28
2023-01-06T10:35:42.792Z,76861.34
2023-01-06T10:37:39.147Z,76865.28
2023-01-06T10:39:32.178Z,76843.53
2023-01-06T10:41:42.187Z,76849.47
2023-01-06T10:43:33.095Z,76849.47
2023-01-06T10:45:26.309Z,76847.50
2023-01-06T10:47:23.485Z,76863.31
2023-01-06T10:49:16.001Z,76857.38
2023-01-06T10:51:25.715Z,76857.38
2023-01-06T10:53:17.225Z,76865.28
2023-01-06T10:55:08.885Z,76869.25
2023-01-06T10:57:04.505Z,76855.41
2023-01-06T10:59:03.237Z,76855.41
2023-01-06T11:01:18.026Z,76849.47
2023-01-06T11:03:31.880Z,76849.47
2023-01-06T11:05:25.792Z,76841.56
2023-01-06T11:07:17.384Z,76845.50
2023-01-06T11:09:22.244Z,76841.56
2023-01-06T11:11:33.378Z,76837.59
2023-01-06T11:13:29.744Z,76833.66
2023-01-06T11:15:22.893Z,76831.66
2023-01-06T11:17:15.726Z,76829.69
2023-01-06T11:19:08.952Z,76825.72
2023-01-06T11:21:03.434Z,76829.69
2023-01-06T11:22:54.804Z,76813.88
2023-01-06T11:24:52.271Z,76813.88
2023-01-06T11:27:06.804Z,76809.91
2023-01-06T11:29:17.173Z,76817.81
2023-01-06T11:31:14.751Z,76805.97
2023-01-06T11:33:06.159Z,76809.91
2023-01-06T11:34:59.278Z,76802.00
2023-01-06T11:36:51.877Z,76794.09
2023-01-06T11:38:44.475Z,76790.13
2023-01-06T11:40:37.809Z,76796.06
2023-01-06T11:42:30.639Z,76802.00
2023-01-06T11:44:35.866Z,76786.19
2023-01-06T11:46:27.311Z,76792.13
2023-01-06T11:48:25.375Z,76774.31
2023-01-06T11:50:20.839Z,76774.31
2023-01-06T11:52:18.637Z,76774.31
2023-01-06T11:54:24.584Z,76766.41
2023-01-06T11:56:15.921Z,76764.44
2023-01-06T11:58:22.249Z,76754.53
2023-01-06T12:00:22.937Z,76742.69
2023-01-06T12:02:18.213Z,76740.69
2023-01-06T12:04:12.764Z,76742.69
2023-01-06T12:06:10.030Z,76738.72
2023-01-06T12:08:02.624Z,76734.78
2023-01-06T12:09:55.321Z,76730.81
2023-01-06T12:11:48.400Z,76740.69
2023-01-06T12:13:44.697Z,76742.69
2023-01-06T12:15:40.072Z,76734.78
2023-01-06T12:17:52.414Z,76732.78
2023-01-06T12:19:43.502Z,76722.91
2023-01-06T12:21:36.922Z,76718.94
2023-01-06T12:23:36.263Z,76715.00
2023-01-06T12:25:27.825Z,76707.09
2023-01-06T12:27:24.011Z,76707.09
2023-01-06T12:29:19.452Z,76703.13
2023-01-06T12:31:14.853Z,76709.06
2023-01-06T12:33:13.991Z,76691.25
2023-01-06T12:35:06.007Z,76701.16
2023-01-06T12:37:16.046Z,76693.25
2023-01-06T12:39:17.604Z,76699.19
2023-01-06T12:41:23.960Z,76695.22
2023-01-06T12:43:18.980Z,76681.38
2023-01-06T12:45:10.655Z,76681.38
2023-01-06T12:47:01.792Z,76679.41
2023-01-06T12:49:09.139Z,76677.41
2023-01-06T12:51:05.066Z,76669.50
2023-01-06T12:53:19.745Z,76655.66
2023-01-06T12:55:23.560Z,76651.72
2023-01-06T12:57:28.001Z,76651.72
2023-01-06T12:59:19.518Z,76643.81
2023-01-06T13:01:16.684Z,76643.81
2023-01-06T13:03:20.717Z,76616.13
2023-01-06T13:05:21.542Z,76637.88
2023-01-06T13:07:15.852Z,76635.91
2023-01-06T13:09:25.713Z,76641.81
2023-01-06T13:11:38.497Z,76631.94
2023-01-06T13:13:41.799Z,76651.72
2023-01-06T13:15:34.598Z,76639.84
2023-01-06T13:17:31.673Z,76645.78
2023-01-06T13:19:38.551Z,76639.84
2023-01-06T13:21:31.694Z,76631.94
2023-01-06T13:23:26.494Z,76624.03
2023-01-06T13:25:21.464Z,76616.13
2023-01-06T13:27:18.926Z,76610.19
2023-01-06T13:29:36.094Z,76596.34
2023-01-06T13:31:41.396Z,76592.41
2023-01-06T13:33:41.057Z,76592.41
2023-01-06T13:35:35.367Z,76596.34
2023-01-06T13:37:26.897Z,76582.50
2023-01-06T13:39:26.996Z,76586.47
2023-01-06T13:41:23.561Z,76576.56
2023-01-06T13:43:24.462Z,76576.56
2023-01-06T13:45:19.719Z,76576.56
2023-01-06T13:47:22.507Z,76568.66
2023-01-06T13:49:14.767Z,76570.63
2023-01-06T13:51:09.923Z,76566.69
2023-01-06T13:53:01.810Z,76556.81
2023-01-06T13:54:53.000Z,76556.81
2023-01-06T13:56:44.248Z,76537.03
2023-01-06T13:58:36.500Z,76525.16
2023-01-06T14:00:29.663Z,76515.28
2023-01-06T14:02:36.580Z,76509.34
2023-01-06T14:04:30.694Z,76519.22
2023-01-06T14:06:21.991Z,76511.31
2023-01-06T14:08:17.478Z,76505.38
2023-01-06T14:10:29.382Z,76495.50
2023-01-06T14:12:22.643Z,76487.59
2023-01-06T14:14:19.616Z,76483.63
2023-01-06T14:16:12.352Z,76481.66
2023-01-06T14:18:04.159Z,76463.88
2023-01-06T14:19:55.551Z,76467.81
2023-01-06T14:21:48.605Z,76453.97
2023-01-06T14:23:49.545Z,76432.22
2023-01-06T14:25:41.787Z,76438.16
2023-01-06T14:27:48.620Z,76438.16
2023-01-06T14:29:40.154Z,76416.41
2023-01-06T14:31:31.887Z,76430.25
2023-01-06T14:33:29.543Z,76426.28
2023-01-06T14:35:26.958Z,76406.53
2023-01-06T14:37:20.385Z,76394.66
2023-01-06T14:39:18.678Z,76398.63
2023-01-06T14:41:26.245Z,76378.84
2023-01-06T14:43:42.355Z,76370.94
2023-01-06T14:45:38.919Z,76368.94
2023-01-06T14:47:43.194Z,76355.13
2023-01-06T14:49:37.957Z,76347.19
2023-01-06T14:51:29.933Z,76339.28
2023-01-06T14:53:30.272Z,76339.28
2023-01-06T14:55:23.016Z,76335.34
2023-01-06T14:57:25.375Z,76341.28
2023-01-06T14:59:16.571Z,76341.28
2023-01-06T15:01:08.006Z,76335.34
2023-01-06T15:03:00.941Z,76337.31
2023-01-06T15:04:59.721Z,76341.28
2023-01-06T15:06:58.420Z,76337.31
2023-01-06T15:08:50.088Z,76327.44
2023-01-06T15:10:42.328Z,76331.38
2023-01-06T15:12:33.594Z,76333.38
2023-01-06T15:14:29.856Z,76339.28
2023-01-06T15:16:29.860Z,76337.31
2023-01-06T15:18:20.876Z,76339.28
2023-01-06T15:20:13.414Z,76335.34
2023-01-06T15:22:08.253Z,76329.41
2023-01-06T15:24:00.206Z,76329.41
2023-01-06T15:25:52.827Z,76329.41
2023-01-06T15:27:57.889Z,76329.41
2023-01-06T15:29:50.496Z,76313.59
2023-01-06T15:31:42.653Z,76313.59
2023-01-06T15:33:37.675Z,76309.63
2023-01-06T15:35:31.356Z,76315.56
2023-01-06T15:37:27.171Z,76315.56
2023-01-06T15:39:23.954Z,76295.78
2023-01-06T15:41:32.800Z,76293.81
2023-01-06T15:43:26.042Z,76295.78
2023-01-06T15:45:23.811Z,76311.63
2023-01-06T15:47:24.115Z,76307.66
2023-01-06T15:49:27.614Z,76309.63
2023-01-06T15:51:20.354Z,76303.69
2023-01-06T15:53:21.338Z,76293.81
2023-01-06T15:55:22.507Z,76299.75
2023-01-06T15:57:17.028Z,76287.88
2023-01-06T15:59:13.863Z,76276.03
2023-01-06T16:01:08.619Z,76278.00
2023-01-06T16:03:00.388Z,76279.97
2023-01-06T16:04:51.570Z,76276.03
2023-01-06T16:06:43.713Z,76274.03
2023-01-06T16:08:34.949Z,76274.03
2023-01-06T16:10:34.628Z,76266.13
2023-01-06T16:12:26.631Z,76268.13
2023-01-06T16:14:30.540Z,76270.09
2023-01-06T16:16:24.451Z,76256.25
2023-01-06T16:18:16.790Z,76246.38
2023-01-06T16:20:22.287Z,76266.13
2023-01-06T16:22:40.211Z,76244.38
2023-01-06T16:24:31.707Z,76252.28
2023-01-06T16:26:24.764Z,76256.25
2023-01-06T16:28:19.477Z,76252.28
2023-01-06T16:30:13.638Z,76252.28
2023-01-06T16:32:20.656Z,76252.28
2023-01-06T16:34:25.059Z,76236.47
2023-01-06T16:36:17.046Z,76228.56
2023-01-06T16:38:08.799Z,76232.53
2023-01-06T16:40:00.316Z,76240.44
2023-01-06T16:42:00.593Z,76236.47
2023-01-06T16:43:51.967Z,76226.59
2023-01-06T16:45:44.696Z,76212.75
2023-01-06T16:47:35.779Z,76210.78
2023-01-06T16:49:30.050Z,76212.75
2023-01-06T16:51:21.386Z,76224.63
2023-01-06T16:53:18.474Z,76216.72
2023-01-06T16:55:17.933Z,76208.78
2023-01-06T16:57:10.237Z,76208.78
2023-01-06T16:59:01.794Z,76204.84
2023-01-06T17:00:54.770Z,76210.78
2023-01-06T17:02:47.631Z,76208.78
2023-01-06T17:04:38.802Z,76198.91
2023-01-06T17:06:31.751Z,76200.88
2023-01-06T17:08:33.163Z,76196.94
2023-01-06T17:10:24.817Z,76194.97
2023-01-06T17:12:38.664Z,76194.97
2023-01-06T17:14:31.322Z,76198.91
2023-01-06T17:16:27.477Z,76208.78
2023-01-06T17:18:26.554Z,76200.88
2023-01-06T17:20:17.824Z,76204.84
2023-01-06T17:22:35.198Z,76220.66
2023-01-06T17:24:29.436Z,76230.53
2023-01-06T17:26:21.465Z,76220.66
2023-01-06T17:28:20.289Z,76228.56
2023-01-06T17:30:16.743Z,76226.59
2023-01-06T17:32:18.605Z,76220.66
2023-01-06T17:34:15.091Z,76234.50
2023-01-06T17:36:06.709Z,76230.53
2023-01-06T17:37:59.606Z,76228.56
2023-01-06T17:39:50.801Z,76240.44
2023-01-06T17:41:42.019Z,76246.38
2023-01-06T17:43:37.299Z,76260.22
2023-01-06T17:45:29.004Z,76268.13
2023-01-06T17:47:20.763Z,76289.88
2023-01-06T17:49:18.819Z,76295.78
2023-01-06T17:51:10.106Z,76299.75
2023-01-06T17:53:28.973Z,76325.44
2023-01-06T17:55:38.887Z,76366.97
2023-01-06T17:57:31.834Z,76459.91
2023-01-06T17:59:23.515Z,76531.09
2023-01-06T18:01:35.093Z,76614.16
2023-01-06T18:03:31.946Z,76683.34
2023-01-06T18:05:26.454Z,76715.00
2023-01-06T18:07:17.935Z,76756.53
2023-01-06T18:09:14.922Z,76790.13
2023-01-06T18:11:07.068Z,76843.53
2023-01-06T18:12:59.769Z,76873.19
2023-01-06T18:14:51.449Z,76891.00
2023-01-06T18:16:45.001Z,76930.53
2023-01-06T18:18:37.425Z,76976.03
2023-01-06T18:20:29.367Z,76972.06
2023-01-06T18:22:24.392Z,76985.91
2023-01-06T18:24:27.936Z,77015.56
2023-01-06T18:26:45.363Z,77041.28
2023-01-06T18:28:36.530Z,77074.91
2023-01-06T18:30:28.401Z,77098.63
2023-01-06T18:32:33.652Z,77122.38
2023-01-06T18:34:41.287Z,77146.09
2023-01-06T18:36:32.710Z,77169.84
2023-01-06T18:38:31.080Z,77183.69
2023-01-06T18:40:27.062Z,77191.59
2023-01-06T18:42:32.091Z,77197.53
2023-01-06T18:44:24.716Z,77213.34
2023-01-06T18:46:17.541Z,77237.06
2023-01-06T18:48:18.254Z,77245.00
2023-01-06T18:50:18.807Z,77256.84
2023-01-06T18:52:29.183Z,77262.78
2023-01-06T18:54:23.181Z,77256.84
2023-01-06T18:56:15.084Z,77272.69
2023-01-06T18:58:12.326Z,77284.53
2023-01-06T19:00:23.696Z,77292.44
2023-01-06T19:02:27.493Z,77298.38
2023-01-06T19:04:30.300Z,77298.38
2023-01-06T19:06:30.911Z,77308.28
2023-01-06T19:08:29.540Z,77316.19
2023-01-06T19:10:27.253Z,77332.00
2023-01-06T19:12:31.737Z,77335.97
2023-01-06T19:14:22.951Z,77335.97
2023-01-06T19:16:30.803Z,77335.97
2023-01-06T19:18:21.820Z,77351.78
2023-01-06T19:20:17.242Z,77367.59
2023-01-06T19:22:15.204Z,77373.53
2023-01-06T19:24:25.512Z,77383.44
2023-01-06T19:26:31.845Z,77395.28
2023-01-06T19:28:24.945Z,77411.13
2023-01-06T19:30:31.744Z,77419.03
2023-01-06T19:32:24.356Z,77432.88
2023-01-06T19:34:16.180Z,77440.78
2023-01-06T19:36:26.301Z,77454.63
2023-01-06T19:38:21.036Z,77462.53
2023-01-06T19:40:24.067Z,77486.28
2023-01-06T19:42:20.224Z,77513.97
2023-01-06T19:44:13.205Z,77513.97
2023-01-06T19:46:23.735Z,77513.97
2023-01-06T19:48:24.501Z,77527.81
2023-01-06T19:50:22.968Z,77541.66
2023-01-06T19:52:27.704Z,77541.66
2023-01-06T19:54:21.846Z,77547.59
2023-01-06T19:56:20.655Z,77555.50
2023-01-06T19:58:18.644Z,77585.16
2023-01-06T20:00:23.587Z,77601.00
2023-01-06T20:02:28.064Z,77616.81
2023-01-06T20:04:22.140Z,77638.56
2023-01-06T20:06:14.135Z,77634.63
2023-01-06T20:08:05.454Z,77652.41
2023-01-06T20:09:58.176Z,77674.19
2023-01-06T20:11:51.737Z,77699.88
2023-01-06T20:13:43.333Z,77691.97
2023-01-06T20:15:34.800Z,77691.97
2023-01-06T20:17:26.372Z,77727.59
2023-01-06T20:19:18.430Z,77763.19
2023-01-06T20:21:10.152Z,77743.41
2023-01-06T20:23:01.493Z,77761.22
2023-01-06T20:24:53.215Z,77779.00
2023-01-06T20:26:44.385Z,77784.94
2023-01-06T20:28:35.831Z,77802.75
2023-01-06T20:30:27.008Z,77798.78
2023-01-06T20:32:18.666Z,77824.50
2023-01-06T20:34:10.055Z,77822.53
2023-01-06T20:36:01.317Z,77830.44
2023-01-06T20:37:52.976Z,77840.31
2023-01-06T20:39:45.151Z,77844.28
2023-01-06T20:41:36.602Z,77850.22
2023-01-06T20:43:28.177Z,77862.09
2023-01-06T20:45:20.743Z,77858.13
2023-01-06T20:47:12.133Z,77850.22
2023-01-06T20:49:03.664Z,77866.03
2023-01-06T20:50:56.117Z,77873.94
2023-01-06T20:52:47.907Z,77881.88
2023-01-06T20:54:39.424Z,77873.94
2023-01-06T20:56:30.605Z,77887.78
2023-01-06T20:58:22.127Z,77917.47
2023-01-06T21:00:13.834Z,77917.47
2023-01-06T21:02:05.455Z,77917.47
2023-01-06T21:03:57.614Z,77941.22
2023-01-06T21:05:48.713Z,77947.13
2023-01-06T21:07:40.311Z,77959.00
2023-01-06T21:09:31.485Z,77966.91
2023-01-06T21:11:22.831Z,77972.84
2023-01-06T21:13:14.050Z,77984.72
2023-01-06T21:15:07.083Z,78000.53
2023-01-06T21:16:58.553Z,78012.41
2023-01-06T21:18:50.675Z,78018.34
2023-01-06T21:20:42.207Z,78032.19
2023-01-06T21:22:33.368Z,78040.09
2023-01-06T21:24:25.551Z,78038.13
2023-01-06T21:26:16.792Z,78044.06
2023-01-06T21:28:08.648Z,78069.78
2023-01-06T21:29:59.828Z,78071.75
2023-01-06T21:31:51.137Z,78083.63
2023-01-06T21:33:42.171Z,78101.44
2023-01-06T21:35:35.837Z,78113.31
2023-01-06T21:37:27.657Z,78115.28
2023-01-06T21:39:19.605Z,78150.88
2023-01-06T21:41:29.956Z,78194.41
2023-01-06T21:43:21.153Z,78214.19
2023-01-06T21:45:12.331Z,78216.16
2023-01-06T21:47:04.236Z,78241.88
2023-01-06T21:48:55.383Z,78253.75
2023-01-06T21:50:46.828Z,78269.56
2023-01-06T21:52:38.514Z,78263.63
2023-01-06T21:54:30.561Z,78285.41
2023-01-06T21:56:23.228Z,78295.28
2023-01-06T21:58:14.321Z,78297.28
2023-01-06T22:00:06.423Z,78317.06
2023-01-06T22:02:04.172Z,78330.91
2023-01-06T22:03:56.401Z,78336.84
2023-01-06T22:05:48.302Z,78324.97
2023-01-06T22:07:45.121Z,78326.94
2023-01-06T22:09:39.029Z,78328.94
2023-01-06T22:11:31.189Z,78344.75
2023-01-06T22:13:23.176Z,78348.72
2023-01-06T22:15:14.668Z,78346.72
2023-01-06T22:17:07.213Z,78334.84
2023-01-06T22:18:58.874Z,78348.72
2023-01-06T22:20:50.274Z,78360.56
2023-01-06T22:22:41.794Z,78370.47
2023-01-06T22:24:33.902Z,78368.50
2023-01-06T22:26:25.238Z,78368.50
2023-01-06T22:28:16.923Z,78392.22
2023-01-06T22:30:08.662Z,78415.97
2023-01-06T22:32:04.140Z,78443.66
2023-01-06T22:33:55.236Z,78451.56